sensor_id;sensor_type;location;lat;lon;timestamp;pressure;altitude;pressure_sealevel;temperature;humidity
71774;BME280;59607;52.130;5.430;2023-03-17T00:00:43;100919.19;;;8.06;77.16
71774;BME280;59607;52.130;5.430;2023-03-17T00:03:27;100924.56;;;8.05;77.21
71774;BME280;59607;52.130;5.430;2023-03-17T00:06:01;100924.84;;;8.01;77.46
71774;BME280;59607;52.130;5.430;2023-03-17T00:08:34;100903.44;;;7.98;77.07
71774;BME280;59607;52.130;5.430;2023-03-17T00:11:05;100897.53;;;7.96;77.08
71774;BME280;59607;52.130;5.430;2023-03-17T00:13:44;100909.19;;;7.92;76.93
71774;BME280;59607;52.130;5.430;2023-03-17T00:16:21;100925.31;;;7.87;77.49
71774;BME280;59607;52.130;5.430;2023-03-17T00:18:53;100933.84;;;7.79;78.68
71774;BME280;59607;52.130;5.430;2023-03-17T00:21:30;100928.38;;;7.72;78.95
71774;BME280;59607;52.130;5.430;2023-03-17T00:23:59;100926.75;;;7.71;78.90
71774;BME280;59607;52.130;5.430;2023-03-17T00:26:43;100924.13;;;7.71;78.43
71774;BME280;59607;52.130;5.430;2023-03-17T00:29:13;100908.59;;;7.70;78.65
71774;BME280;59607;52.130;5.430;2023-03-17T00:31:44;100914.50;;;7.72;78.49
71774;BME280;59607;52.130;5.430;2023-03-17T00:34:16;100912.84;;;7.71;78.96
71774;BME280;59607;52.130;5.430;2023-03-17T00:36:47;100899.00;;;7.70;78.74
71774;BME280;59607;52.130;5.430;2023-03-17T00:39:22;100904.06;;;7.72;79.01
71774;BME280;59607;52.130;5.430;2023-03-17T00:41:59;100914.81;;;7.69;78.61
71774;BME280;59607;52.130;5.430;2023-03-17T00:44:26;100908.75;;;7.68;78.47
71774;BME280;59607;52.130;5.430;2023-03-17T00:46:53;100907.13;;;7.67;78.07
71774;BME280;59607;52.130;5.430;2023-03-17T00:49:24;100901.75;;;7.69;77.92
71774;BME280;59607;52.130;5.430;2023-03-17T00:51:51;100904.50;;;7.67;77.87
71774;BME280;59607;52.130;5.430;2023-03-17T00:54:18;100907.38;;;7.64;78.83
71774;BME280;59607;52.130;5.430;2023-03-17T00:56:52;100908.34;;;7.63;78.31
71774;BME280;59607;52.130;5.430;2023-03-17T00:59:39;100909.97;;;7.64;78.23
71774;BME280;59607;52.130;5.430;2023-03-17T01:02:12;100905.03;;;7.61;78.63
71774;BME280;59607;52.130;5.430;2023-03-17T01:04:41;100904.38;;;7.59;78.10
71774;BME280;59607;52.130;5.430;2023-03-17T01:07:21;100892.13;;;7.59;77.99
71774;BME280;59607;52.130;5.430;2023-03-17T01:09:51;100870.44;;;7.59;77.70
71774;BME280;59607;52.130;5.430;2023-03-17T01:12:25;100861.78;;;7.58;77.61
71774;BME280;59607;52.130;5.430;2023-03-17T01:15:13;100860.00;;;7.59;77.82
71774;BME280;59607;52.130;5.430;2023-03-17T01:17:40;100860.00;;;7.59;77.54
71774;BME280;59607;52.130;5.430;2023-03-17T01:20:29;100870.44;;;7.59;78.16
71774;BME280;59607;52.130;5.430;2023-03-17T01:23:03;100882.81;;;7.57;78.36
71774;BME280;59607;52.130;5.430;2023-03-17T01:25:30;100880.88;;;7.59;77.99
71774;BME280;59607;52.130;5.430;2023-03-17T01:28:00;100878.66;;;7.64;77.60
71774;BME280;59607;52.130;5.430;2023-03-17T01:30:32;100883.63;;;7.67;77.69
71774;BME280;59607;52.130;5.430;2023-03-17T01:33:04;100881.00;;;7.67;77.59
71774;BME280;59607;52.130;5.430;2023-03-17T01:35:35;100879.19;;;7.68;76.87
71774;BME280;59607;52.130;5.430;2023-03-17T01:38:02;100879.06;;;7.69;77.47
71774;BME280;59607;52.130;5.430;2023-03-17T01:40:44;100875.63;;;7.69;77.13
71774;BME280;59607;52.130;5.430;2023-03-17T01:57:30;100862.34;;;7.52;76.76
71774;BME280;59607;52.130;5.430;2023-03-17T02:02:48;100851.81;;;7.44;77.86
71774;BME280;59607;52.130;5.430;2023-03-17T02:05:19;100847.84;;;7.39;77.80
71774;BME280;59607;52.130;5.430;2023-03-17T02:07:57;100846.59;;;7.34;77.86
71774;BME280;59607;52.130;5.430;2023-03-17T02:10:31;100836.03;;;7.35;77.44
71774;BME280;59607;52.130;5.430;2023-03-17T02:12:59;100834.38;;;7.34;77.33
71774;BME280;59607;52.130;5.430;2023-03-17T02:15:38;100831.50;;;7.27;77.56
71774;BME280;59607;52.130;5.430;2023-03-17T02:18:18;100841.94;;;7.27;77.47
71774;BME280;59607;52.130;5.430;2023-03-17T02:23:20;100819.72;;;7.23;78.11
71774;BME280;59607;52.130;5.430;2023-03-17T02:26:04;100829.34;;;7.23;77.93
71774;BME280;59607;52.130;5.430;2023-03-17T02:28:30;100839.22;;;7.19;78.13
71774;BME280;59607;52.130;5.430;2023-03-17T02:31:02;100835.25;;;7.15;78.42
71774;BME280;59607;52.130;5.430;2023-03-17T02:33:29;100829.06;;;7.16;78.51
71774;BME280;59607;52.130;5.430;2023-03-17T02:35:59;100828.09;;;7.17;78.02
71774;BME280;59607;52.130;5.430;2023-03-17T02:38:26;100816.72;;;7.18;78.13
71774;BME280;59607;52.130;5.430;2023-03-17T02:40:52;100824.69;;;7.16;78.59
71774;BME280;59607;52.130;5.430;2023-03-17T02:43:19;100825.63;;;7.15;78.51
71774;BME280;59607;52.130;5.430;2023-03-17T02:46:03;100816.56;;;7.20;78.43
71774;BME280;59607;52.130;5.430;2023-03-17T02:48:34;100819.03;;;7.21;78.17
71774;BME280;59607;52.130;5.430;2023-03-17T02:51:05;100811.91;;;7.23;77.92
71774;BME280;59607;52.130;5.430;2023-03-17T02:53:34;100818.06;;;7.22;78.05
71774;BME280;59607;52.130;5.430;2023-03-17T02:56:00;100816.44;;;7.21;78.15
71774;BME280;59607;52.130;5.430;2023-03-17T02:58:27;100812.69;;;7.24;77.80
71774;BME280;59607;52.130;5.430;2023-03-17T03:00:53;100823.13;;;7.24;77.97
71774;BME280;59607;52.130;5.430;2023-03-17T03:03:20;100821.22;;;7.26;77.60
71774;BME280;59607;52.130;5.430;2023-03-17T03:05:47;100828.22;;;7.25;77.86
71774;BME280;59607;52.130;5.430;2023-03-17T03:08:13;100826.44;;;7.26;78.09
71774;BME280;59607;52.130;5.430;2023-03-17T03:10:49;100819.97;;;7.30;77.54
71774;BME280;59607;52.130;5.430;2023-03-17T03:13:21;100823.25;;;7.32;77.67
71774;BME280;59607;52.130;5.430;2023-03-17T03:15:51;100823.66;;;7.37;77.54
71774;BME280;59607;52.130;5.430;2023-03-17T03:18:18;100825.16;;;7.40;77.47
71774;BME280;59607;52.130;5.430;2023-03-17T03:21:01;100812.09;;;7.40;77.70
71774;BME280;59607;52.130;5.430;2023-03-17T03:23:32;100818.16;;;7.40;77.73
71774;BME280;59607;52.130;5.430;2023-03-17T03:25:58;100818.00;;;7.42;77.37
71774;BME280;59607;52.130;5.430;2023-03-17T03:28:25;100806.59;;;7.43;77.49
71774;BME280;59607;52.130;5.430;2023-03-17T03:30:52;100817.59;;;7.47;76.62
71774;BME280;59607;52.130;5.430;2023-03-17T03:33:21;100822.81;;;7.47;77.06
71774;BME280;59607;52.130;5.430;2023-03-17T03:35:47;100825.13;;;7.50;76.83
71774;BME280;59607;52.130;5.430;2023-03-17T03:38:50;100822.53;;;7.50;77.25
71774;BME280;59607;52.130;5.430;2023-03-17T03:41:26;100818.13;;;7.50;76.60
71774;BME280;59607;52.130;5.430;2023-03-17T03:43:52;100831.59;;;7.56;76.86
71774;BME280;59607;52.130;5.430;2023-03-17T03:46:25;100832.94;;;7.60;76.35
71774;BME280;59607;52.130;5.430;2023-03-17T03:48:53;100833.91;;;7.59;77.01
71774;BME280;59607;52.130;5.430;2023-03-17T03:51:57;100831.28;;;7.59;76.87
71774;BME280;59607;52.130;5.430;2023-03-17T03:54:24;100823.19;;;7.62;76.07
71774;BME280;59607;52.130;5.430;2023-03-17T03:56:50;100834.97;;;7.66;76.09
71774;BME280;59607;52.130;5.430;2023-03-17T03:59:17;100840.19;;;7.66;75.72
71774;BME280;59607;52.130;5.430;2023-03-17T04:01:46;100823.56;;;7.67;75.70
71774;BME280;59607;52.130;5.430;2023-03-17T04:04:15;100820.81;;;7.69;75.68
71774;BME280;59607;52.130;5.430;2023-03-17T04:06:43;100820.66;;;7.70;75.60
71774;BME280;59607;52.130;5.430;2023-03-17T04:09:09;100814.63;;;7.70;75.62
71774;BME280;59607;52.130;5.430;2023-03-17T04:11:47;100822.00;;;7.74;75.21
71774;BME280;59607;52.130;5.430;2023-03-17T04:14:16;100823.66;;;7.75;75.56
71774;BME280;59607;52.130;5.430;2023-03-17T04:16:47;100829.69;;;7.76;74.86
71774;BME280;59607;52.130;5.430;2023-03-17T04:19:13;100823.66;;;7.75;75.48
71774;BME280;59607;52.130;5.430;2023-03-17T04:21:40;100838.50;;;7.75;75.01
71774;BME280;59607;52.130;5.430;2023-03-17T04:24:09;100841.94;;;7.75;76.28
71774;BME280;59607;52.130;5.430;2023-03-17T04:26:38;100846.34;;;7.75;75.49
71774;BME280;59607;52.130;5.430;2023-03-17T04:29:10;100840.44;;;7.73;75.77
71774;BME280;59607;52.130;5.430;2023-03-17T04:31:40;100842.06;;;7.74;75.34
71774;BME280;59607;52.130;5.430;2023-03-17T04:34:16;100833.00;;;7.78;75.04
71774;BME280;59607;52.130;5.430;2023-03-17T04:36:45;100830.25;;;7.80;74.22
71774;BME280;59607;52.130;5.430;2023-03-17T04:39:14;100827.63;;;7.80;74.89
71774;BME280;59607;52.130;5.430;2023-03-17T04:41:41;100827.50;;;7.81;74.64
71774;BME280;59607;52.130;5.430;2023-03-17T04:44:07;100821.28;;;7.82;74.63
71774;BME280;59607;52.130;5.430;2023-03-17T04:46:39;100832.41;;;7.84;74.13
71774;BME280;59607;52.130;5.430;2023-03-17T04:49:07;100839.28;;;7.85;74.79
71774;BME280;59607;52.130;5.430;2023-03-17T04:51:41;100852.03;;;7.88;75.26
71774;BME280;59607;52.130;5.430;2023-03-17T04:54:07;100839.13;;;7.87;74.57
71774;BME280;59607;52.130;5.430;2023-03-17T04:56:37;100834.59;;;7.89;74.09
71774;BME280;59607;52.130;5.430;2023-03-17T04:59:07;100839.66;;;7.90;74.14
71774;BME280;59607;52.130;5.430;2023-03-17T05:01:34;100839.81;;;7.89;74.49
71774;BME280;59607;52.130;5.430;2023-03-17T05:04:09;100834.44;;;7.90;74.62
71774;BME280;59607;52.130;5.430;2023-03-17T05:06:41;100831.97;;;7.89;74.16
71774;BME280;59607;52.130;5.430;2023-03-17T05:09:14;100833.31;;;7.93;73.45
71774;BME280;59607;52.130;5.430;2023-03-17T05:11:43;100836.75;;;7.94;73.94
71774;BME280;59607;52.130;5.430;2023-03-17T05:14:16;100836.75;;;7.94;74.19
71774;BME280;59607;52.130;5.430;2023-03-17T05:16:46;100851.50;;;7.95;74.53
71774;BME280;59607;52.130;5.430;2023-03-17T05:19:19;100849.69;;;7.95;73.70
71774;BME280;59607;52.130;5.430;2023-03-17T05:21:45;100846.13;;;7.96;73.49
71774;BME280;59607;52.130;5.430;2023-03-17T05:24:15;100845.13;;;7.97;73.81
71774;BME280;59607;52.130;5.430;2023-03-17T05:26:41;100833.06;;;7.96;73.75
71774;BME280;59607;52.130;5.430;2023-03-17T05:29:07;100831.25;;;7.97;73.24
71774;BME280;59607;52.130;5.430;2023-03-17T05:31:37;100838.28;;;7.96;73.83
71774;BME280;59607;52.130;5.430;2023-03-17T05:34:14;100824.41;;;7.96;73.59
71774;BME280;59607;52.130;5.430;2023-03-17T05:36:43;100830.31;;;7.98;73.63
71774;BME280;59607;52.130;5.430;2023-03-17T05:39:17;100825.06;;;7.98;72.84
71774;BME280;59607;52.130;5.430;2023-03-17T05:41:51;100818.88;;;7.99;72.48
71774;BME280;59607;52.130;5.430;2023-03-17T05:44:18;100818.03;;;7.98;72.43
71774;BME280;59607;52.130;5.430;2023-03-17T05:46:48;100822.59;;;7.96;73.13
71774;BME280;59607;52.130;5.430;2023-03-17T05:49:14;100811.34;;;7.96;73.40
71774;BME280;59607;52.130;5.430;2023-03-17T05:51:41;100804.03;;;7.99;73.09
71774;BME280;59607;52.130;5.430;2023-03-17T05:54:10;100793.44;;;8.01;72.92
71774;BME280;59607;52.130;5.430;2023-03-17T05:56:39;100787.91;;;8.04;72.12
71774;BME280;59607;52.130;5.430;2023-03-17T05:59:05;100801.50;;;8.08;72.05
71774;BME280;59607;52.130;5.430;2023-03-17T06:01:33;100795.16;;;8.10;72.18
71774;BME280;59607;52.130;5.430;2023-03-17T06:04:05;100782.47;;;8.15;71.81
71774;BME280;59607;52.130;5.430;2023-03-17T06:06:32;100784.66;;;8.20;71.54
71774;BME280;59607;52.130;5.430;2023-03-17T06:09:01;100801.00;;;8.22;72.46
71774;BME280;59607;52.130;5.430;2023-03-17T06:11:28;100800.84;;;8.24;72.29
71774;BME280;59607;52.130;5.430;2023-03-17T06:13:54;100805.34;;;8.32;72.48
71774;BME280;59607;52.130;5.430;2023-03-17T06:16:24;100813.41;;;8.38;72.10
71774;BME280;59607;52.130;5.430;2023-03-17T06:18:52;100801.00;;;8.40;71.72
71774;BME280;59607;52.130;5.430;2023-03-17T06:21:18;100802.44;;;8.35;71.41
71774;BME280;59607;52.130;5.430;2023-03-17T06:23:44;100802.44;;;8.35;71.46
71774;BME280;59607;52.130;5.430;2023-03-17T06:26:16;100806.97;;;8.33;71.71
71774;BME280;59607;52.130;5.430;2023-03-17T06:28:43;100805.56;;;8.38;72.21
71774;BME280;59607;52.130;5.430;2023-03-17T06:31:09;100810.94;;;8.37;71.92
71774;BME280;59607;52.130;5.430;2023-03-17T06:33:40;100815.72;;;8.42;72.34
71774;BME280;59607;52.130;5.430;2023-03-17T06:36:06;100818.34;;;8.42;72.04
71774;BME280;59607;52.130;5.430;2023-03-17T06:38:34;100810.34;;;8.43;72.00
71774;BME280;59607;52.130;5.430;2023-03-17T06:41:20;100816.75;;;8.49;72.15
71774;BME280;59607;52.130;5.430;2023-03-17T06:43:54;100826.19;;;8.60;71.86
71774;BME280;59607;52.130;5.430;2023-03-17T06:46:24;100831.13;;;8.63;71.58
71774;BME280;59607;52.130;5.430;2023-03-17T06:48:53;100833.16;;;8.69;71.68
71774;BME280;59607;52.130;5.430;2023-03-17T06:51:31;100842.72;;;8.79;71.37
71774;BME280;59607;52.130;5.430;2023-03-17T06:53:58;100831.19;;;8.89;70.93
71774;BME280;59607;52.130;5.430;2023-03-17T06:56:25;100826.03;;;8.98;70.53
71774;BME280;59607;52.130;5.430;2023-03-17T06:58:56;100820.03;;;9.06;69.93
71774;BME280;59607;52.130;5.430;2023-03-17T07:01:22;100834.31;;;9.11;70.10
71774;BME280;59607;52.130;5.430;2023-03-17T07:03:52;100827.47;;;9.19;70.65
71774;BME280;59607;52.130;5.430;2023-03-17T07:06:23;100831.78;;;9.28;69.95
71774;BME280;59607;52.130;5.430;2023-03-17T07:08:53;100833.91;;;9.33;69.64
71774;BME280;59607;52.130;5.430;2023-03-17T07:11:32;100817.78;;;9.37;69.09
71774;BME280;59607;52.130;5.430;2023-03-17T07:14:04;100817.16;;;9.44;68.90
71774;BME280;59607;52.130;5.430;2023-03-17T07:16:31;100819.63;;;9.45;68.54
71774;BME280;59607;52.130;5.430;2023-03-17T07:18:58;100809.34;;;9.52;68.28
71774;BME280;59607;52.130;5.430;2023-03-17T07:21:31;100813.13;;;9.58;68.18
71774;BME280;59607;52.130;5.430;2023-03-17T07:24:01;100808.25;;;9.63;68.07
71774;BME280;59607;52.130;5.430;2023-03-17T07:26:36;100813.00;;;9.68;68.32
71774;BME280;59607;52.130;5.430;2023-03-17T07:29:02;100821.53;;;9.78;68.14
71774;BME280;59607;52.130;5.430;2023-03-17T07:31:36;100818.78;;;9.88;68.02
71774;BME280;59607;52.130;5.430;2023-03-17T07:34:12;100812.44;;;9.91;67.61
71774;BME280;59607;52.130;5.430;2023-03-17T07:36:41;100812.94;;;10.03;67.25
71774;BME280;59607;52.130;5.430;2023-03-17T07:39:08;100817.56;;;10.17;67.18
71774;BME280;59607;52.130;5.430;2023-03-17T07:41:40;100829.91;;;10.25;67.03
71774;BME280;59607;52.130;5.430;2023-03-17T07:44:07;100832.50;;;10.25;66.62
71774;BME280;59607;52.130;5.430;2023-03-17T07:46:37;100830.88;;;10.32;66.88
71774;BME280;59607;52.130;5.430;2023-03-17T07:49:04;100825.31;;;10.35;66.11
71774;BME280;59607;52.130;5.430;2023-03-17T07:51:31;100824.81;;;10.40;66.24
71774;BME280;59607;52.130;5.430;2023-03-17T07:53:57;100827.94;;;10.44;66.38
71774;BME280;59607;52.130;5.430;2023-03-17T07:56:30;100818.78;;;10.48;65.84
71774;BME280;59607;52.130;5.430;2023-03-17T07:58:56;100827.81;;;10.54;65.62
71774;BME280;59607;52.130;5.430;2023-03-17T08:01:26;100827.00;;;10.53;65.62
71774;BME280;59607;52.130;5.430;2023-03-17T08:03:53;100821.94;;;10.60;65.92
71774;BME280;59607;52.130;5.430;2023-03-17T08:06:22;100825.69;;;10.66;65.19
71774;BME280;59607;52.130;5.430;2023-03-17T08:08:59;100813.91;;;10.70;65.01
71774;BME280;59607;52.130;5.430;2023-03-17T08:11:32;100812.25;;;10.85;64.30
71774;BME280;59607;52.130;5.430;2023-03-17T08:13:58;100810.28;;;10.96;64.44
71774;BME280;59607;52.130;5.430;2023-03-17T08:16:26;100813.19;;;11.18;64.00
71774;BME280;59607;52.130;5.430;2023-03-17T08:18:57;100814.31;;;11.32;63.72
71774;BME280;59607;52.130;5.430;2023-03-17T08:21:26;100806.91;;;11.35;63.46
71774;BME280;59607;52.130;5.430;2023-03-17T08:23:59;100807.19;;;11.49;62.93
71774;BME280;59607;52.130;5.430;2023-03-17T08:26:29;100812.59;;;11.56;62.92
71774;BME280;59607;52.130;5.430;2023-03-17T08:28:56;100805.28;;;11.75;62.69
71774;BME280;59607;52.130;5.430;2023-03-17T08:31:23;100801.34;;;11.79;62.71
71774;BME280;59607;52.130;5.430;2023-03-17T08:33:52;100805.59;;;11.80;62.44
71774;BME280;59607;52.130;5.430;2023-03-17T08:36:20;100799.78;;;11.93;62.09
71774;BME280;59607;52.130;5.430;2023-03-17T08:38:49;100803.03;;;12.03;61.73
71774;BME280;59607;52.130;5.430;2023-03-17T08:41:21;100800.22;;;12.05;61.00
71774;BME280;59607;52.130;5.430;2023-03-17T08:43:52;100800.78;;;12.24;62.00
71774;BME280;59607;52.130;5.430;2023-03-17T08:46:26;100807.75;;;12.40;60.91
71774;BME280;59607;52.130;5.430;2023-03-17T08:48:59;100808.16;;;12.52;60.81
71774;BME280;59607;52.130;5.430;2023-03-17T08:51:31;100803.81;;;12.59;61.11
71774;BME280;59607;52.130;5.430;2023-03-17T08:54:02;100812.53;;;12.59;60.04
71774;BME280;59607;52.130;5.430;2023-03-17T08:56:29;100812.28;;;12.69;60.48
71774;BME280;59607;52.130;5.430;2023-03-17T08:58:59;100805.66;;;12.74;59.84
71774;BME280;59607;52.130;5.430;2023-03-17T09:01:26;100804.41;;;12.69;59.96
71774;BME280;59607;52.130;5.430;2023-03-17T09:03:53;100795.66;;;12.69;59.69
71774;BME280;59607;52.130;5.430;2023-03-17T09:06:23;100802.59;;;12.70;60.15
71774;BME280;59607;52.130;5.430;2023-03-17T09:08:54;100802.84;;;12.60;60.44
71774;BME280;59607;52.130;5.430;2023-03-17T09:11:26;100799.84;;;12.63;60.24
71774;BME280;59607;52.130;5.430;2023-03-17T09:13:56;100802.06;;;12.75;60.19
71774;BME280;59607;52.130;5.430;2023-03-17T09:16:23;100799.69;;;12.80;59.69
71774;BME280;59607;52.130;5.430;2023-03-17T09:18:50;100792.00;;;12.93;60.08
71774;BME280;59607;52.130;5.430;2023-03-17T09:21:17;100795.19;;;13.04;59.18
71774;BME280;59607;52.130;5.430;2023-03-17T09:23:43;100799.75;;;13.10;59.16
71774;BME280;59607;52.130;5.430;2023-03-17T09:26:19;100803.75;;;13.21;59.37
71774;BME280;59607;52.130;5.430;2023-03-17T09:28:45;100809.72;;;13.15;58.58
71774;BME280;59607;52.130;5.430;2023-03-17T09:31:12;100810.91;;;13.12;58.85
71774;BME280;59607;52.130;5.430;2023-03-17T09:33:39;100813.72;;;13.11;58.48
71774;BME280;59607;52.130;5.430;2023-03-17T09:36:10;100810.47;;;13.08;58.98
71774;BME280;59607;52.130;5.430;2023-03-17T09:38:46;100808.00;;;13.22;59.85
71774;BME280;59607;52.130;5.430;2023-03-17T09:46:59;100816.75;;;13.38;59.88
71774;BME280;59607;52.130;5.430;2023-03-17T09:49:56;100821.47;;;13.42;60.18
71774;BME280;59607;52.130;5.430;2023-03-17T09:52:30;100816.84;;;13.60;60.01
71774;BME280;59607;52.130;5.430;2023-03-17T09:55:01;100813.44;;;13.81;59.00
71774;BME280;59607;52.130;5.430;2023-03-17T09:57:34;100820.81;;;13.86;58.77
71774;BME280;59607;52.130;5.430;2023-03-17T10:00:22;100822.78;;;13.99;59.63
71774;BME280;59607;52.130;5.430;2023-03-17T10:03:00;100819.41;;;14.27;58.52
71774;BME280;59607;52.130;5.430;2023-03-17T10:05:29;100827.06;;;14.22;58.19
71774;BME280;59607;52.130;5.430;2023-03-17T10:14:03;100829.41;;;14.31;58.97
71774;BME280;59607;52.130;5.430;2023-03-17T10:22:49;100828.94;;;14.06;58.92
71774;BME280;59607;52.130;5.430;2023-03-17T10:25:21;100833.84;;;14.09;59.22
71774;BME280;59607;52.130;5.430;2023-03-17T10:27:57;100834.03;;;14.07;58.86
71774;BME280;59607;52.130;5.430;2023-03-17T10:30:28;100844.81;;;14.13;58.46
71774;BME280;59607;52.130;5.430;2023-03-17T10:33:01;100854.50;;;14.27;58.21
71774;BME280;59607;52.130;5.430;2023-03-17T10:35:32;100848.63;;;14.47;57.43
71774;BME280;59607;52.130;5.430;2023-03-17T10:38:21;100853.84;;;14.62;57.93
71774;BME280;59607;52.130;5.430;2023-03-17T10:40:56;100852.09;;;14.48;56.97
71774;BME280;59607;52.130;5.430;2023-03-17T10:43:30;100852.16;;;14.54;57.82
71774;BME280;59607;52.130;5.430;2023-03-17T10:46:48;100864.94;;;14.36;58.08
71774;BME280;59607;52.130;5.430;2023-03-17T10:49:15;100880.97;;;14.34;58.26
71774;BME280;59607;52.130;5.430;2023-03-17T10:51:48;100872.06;;;14.57;58.93
71774;BME280;59607;52.130;5.430;2023-03-17T10:54:17;100865.34;;;14.76;58.80
71774;BME280;59607;52.130;5.430;2023-03-17T10:56:46;100856.03;;;15.02;57.98
71774;BME280;59607;52.130;5.430;2023-03-17T10:59:29;100861.06;;;15.26;57.32
71774;BME280;59607;52.130;5.430;2023-03-17T11:02:00;100852.91;;;15.56;56.78
71774;BME280;59607;52.130;5.430;2023-03-17T11:04:38;100842.66;;;15.88;56.56
71774;BME280;59607;52.130;5.430;2023-03-17T11:07:18;100837.56;;;15.87;55.72
71774;BME280;59607;52.130;5.430;2023-03-17T11:10:00;100837.34;;;15.75;56.12
71774;BME280;59607;52.130;5.430;2023-03-17T11:12:34;100824.31;;;15.80;56.72
71774;BME280;59607;52.130;5.430;2023-03-17T11:15:10;100836.78;;;15.93;56.46
71774;BME280;59607;52.130;5.430;2023-03-17T11:17:59;100821.97;;;15.99;56.05
71774;BME280;59607;52.130;5.430;2023-03-17T11:20:46;100827.06;;;16.00;55.67
71774;BME280;59607;52.130;5.430;2023-03-17T11:29:46;100819.16;;;16.07;55.91
71774;BME280;59607;52.130;5.430;2023-03-17T11:35:43;100797.19;;;16.20;56.74
71774;BME280;59607;52.130;5.430;2023-03-17T11:38:36;100806.16;;;16.33;56.53
71774;BME280;59607;52.130;5.430;2023-03-17T11:44:23;100796.00;;;16.70;56.01
71774;BME280;59607;52.130;5.430;2023-03-17T11:50:28;100798.03;;;16.88;55.75
71774;BME280;59607;52.130;5.430;2023-03-17T11:53:39;100808.63;;;16.88;55.87
71774;BME280;59607;52.130;5.430;2023-03-17T11:56:27;100801.25;;;16.97;55.42
71774;BME280;59607;52.130;5.430;2023-03-17T11:59:00;100806.75;;;17.02;55.36
71774;BME280;59607;52.130;5.430;2023-03-17T12:07:46;100812.69;;;16.98;56.66
71774;BME280;59607;52.130;5.430;2023-03-17T12:10:45;100819.81;;;17.11;55.67
71774;BME280;59607;52.130;5.430;2023-03-17T12:13:31;100806.72;;;17.23;55.09
71774;BME280;59607;52.130;5.430;2023-03-17T12:16:22;100797.16;;;17.29;55.75
71774;BME280;59607;52.130;5.430;2023-03-17T12:22:07;100782.03;;;17.29;55.02
71774;BME280;59607;52.130;5.430;2023-03-17T12:27:37;100775.31;;;17.33;54.89
71774;BME280;59607;52.130;5.430;2023-03-17T12:30:29;100766.28;;;17.48;55.68
71774;BME280;59607;52.130;5.430;2023-03-17T12:33:52;100769.47;;;17.57;55.52
71774;BME280;59607;52.130;5.430;2023-03-17T12:36:13;100769.56;;;17.43;54.73
71774;BME280;59607;52.130;5.430;2023-03-17T12:39:01;100762.66;;;17.35;54.46
71774;BME280;59607;52.130;5.430;2023-03-17T12:44:50;100757.53;;;17.41;54.99
71774;BME280;59607;52.130;5.430;2023-03-17T12:47:36;100757.53;;;17.41;54.99
71774;BME280;59607;52.130;5.430;2023-03-17T12:50:26;100749.97;;;17.44;54.67
71774;BME280;59607;52.130;5.430;2023-03-17T12:53:08;100757.53;;;17.41;55.03
71774;BME280;59607;52.130;5.430;2023-03-17T12:55:44;100759.38;;;17.40;54.74
71774;BME280;59607;52.130;5.430;2023-03-17T12:58:33;100758.78;;;17.31;55.24
71774;BME280;59607;52.130;5.430;2023-03-17T13:01:10;100765.53;;;17.27;55.89
71774;BME280;59607;52.130;5.430;2023-03-17T13:03:59;100749.00;;;17.32;56.19
71774;BME280;59607;52.130;5.430;2023-03-17T13:06:35;100756.31;;;17.36;55.53
71774;BME280;59607;52.130;5.430;2023-03-17T13:09:31;100766.13;;;17.29;55.43
71774;BME280;59607;52.130;5.430;2023-03-17T13:15:21;100770.91;;;17.59;56.24
71774;BME280;59607;52.130;5.430;2023-03-17T13:23:43;100772.28;;;17.23;55.92
71774;BME280;59607;52.130;5.430;2023-03-17T13:26:20;100767.03;;;17.09;56.22
71774;BME280;59607;52.130;5.430;2023-03-17T13:28:49;100763.97;;;17.12;56.13
71774;BME280;59607;52.130;5.430;2023-03-17T13:36:46;100768.22;;;17.13;56.70
71774;BME280;59607;52.130;5.430;2023-03-17T13:45:36;100765.56;;;17.13;56.70
71774;BME280;59607;52.130;5.430;2023-03-17T14:02:59;100740.47;;;17.23;56.91
71774;BME280;59607;52.130;5.430;2023-03-17T14:05:30;100727.59;;;17.33;57.04
71774;BME280;59607;52.130;5.430;2023-03-17T14:08:29;100747.38;;;17.31;56.91
71774;BME280;59607;52.130;5.430;2023-03-17T14:11:02;100750.66;;;17.26;56.72
71774;BME280;59607;52.130;5.430;2023-03-17T14:16:33;100738.81;;;17.35;56.78
71774;BME280;59607;52.130;5.430;2023-03-17T14:19:21;100747.56;;;17.29;56.39
71774;BME280;59607;52.130;5.430;2023-03-17T14:21:51;100743.13;;;17.23;56.02
71774;BME280;59607;52.130;5.430;2023-03-17T14:24:31;100746.59;;;17.17;56.92
71774;BME280;59607;52.130;5.430;2023-03-17T14:27:04;100741.50;;;17.22;56.58
71774;BME280;59607;52.130;5.430;2023-03-17T14:29:35;100741.25;;;17.37;56.93
71774;BME280;59607;52.130;5.430;2023-03-17T14:32:17;100726.94;;;17.38;56.20
71774;BME280;59607;52.130;5.430;2023-03-17T14:34:57;100727.56;;;17.40;56.00
71774;BME280;59607;52.130;5.430;2023-03-17T14:37:28;100727.16;;;17.36;56.45
71774;BME280;59607;52.130;5.430;2023-03-17T14:40:00;100728.34;;;17.41;55.94
71774;BME280;59607;52.130;5.430;2023-03-17T14:42:28;100722.28;;;17.33;55.30
71774;BME280;59607;52.130;5.430;2023-03-17T14:45:27;100723.91;;;17.34;55.77
71774;BME280;59607;52.130;5.430;2023-03-17T14:47:55;100719.00;;;17.38;55.77
71774;BME280;59607;52.130;5.430;2023-03-17T14:50:29;100716.16;;;17.33;55.96
71774;BME280;59607;52.130;5.430;2023-03-17T14:53:20;100709.66;;;17.35;55.66
71774;BME280;59607;52.130;5.430;2023-03-17T14:55:51;100707.59;;;17.31;55.69
71774;BME280;59607;52.130;5.430;2023-03-17T14:58:23;100708.63;;;17.30;55.80
71774;BME280;59607;52.130;5.430;2023-03-17T15:01:14;100704.16;;;17.30;55.96
71774;BME280;59607;52.130;5.430;2023-03-17T15:04:04;100703.94;;;17.32;55.84
71774;BME280;59607;52.130;5.430;2023-03-17T15:06:50;100707.03;;;17.29;55.87
71774;BME280;59607;52.130;5.430;2023-03-17T15:09:38;100710.88;;;17.26;55.67
71774;BME280;59607;52.130;5.430;2023-03-17T15:12:14;100704.19;;;17.23;55.89
71774;BME280;59607;52.130;5.430;2023-03-17T15:14:45;100707.81;;;17.29;56.80